Estevan Airport
CYEN : now visible

Airfield :











YOU CAN JOIN US ON...

 
LOGIN :

Register | Disclaimer

   EN    FR    IT 

 









Legend :    VFR   Marginal VFR   IFR   Intensive IFR   Very Intensive IFR
Visi :
Ceiling :
>= 8 km
>= 3000ft
5 to 8 km
1000 to 3000 ft
1500m to 5 km
500 to 1000 ft
800 to 1500m
200 to 500 ft
< 800m
< 200 ft
Symbols :   Thunderstorms  Fog  Heavy snow  Heavy precipitations  Wind > 20 kt






- Airport Elevation : 1905 ft
- IATA code : YEN


CYEN - Estevan

CURRENT METAR :
  • 011400Z AUTO 29008KT 9SM CLR M23/M26 A2995 RMK SLP205

EXPIRED METARs :
  • 011300Z AUTO 30008KT 9SM CLR M22/M25 A2994 RMK SLP203
  • 011200Z AUTO 28009KT 9SM CLR M22/M24 A2994 RMK SLP198

TAF TAF CYEN
Valid from the 01 at 12:00 until the 02 at 00:00 UTC


011150Z 0112/0124 27010KT P6SM FEW008 SCT060
FM011600 24006KT P6SM SCT008 BKN060
TEMPO 0116/0122 P6SM -SN BKN008 OVC060
FM012200 32008KT P6SM SCT012 BKN060
TEMPO 0122/0124 5SM -SN BKN012 OVC060 RMK FCST BASED ON AUTO OBS. NXT FCST BY 011800Z
CZWG FIR / North America



MET'MAP, your aeronautical weather chart ! - Copyright ORBIFLY December 2007 - Disclaimer

ORBIFLY MET'MAP TEAM :

Programming & Development : Alexandra Zaïnal
Original concept : Baudouin d'Aumeries
Technical & hardware support : Manuel Goepfert
Assistance : Marc-Olivier Méhu




SOURCES & CREDITS :

   NOAA       Earth
Advisory